createdAt,value
2022-10-09T00:00:01.140Z,84.6
2022-10-09T00:05:01.281Z,84.4
2022-10-09T00:10:01.108Z,84.6
2022-10-09T00:15:01.242Z,84.4
2022-10-09T00:25:01.198Z,83.7
2022-10-09T00:30:01.109Z,82.8
2022-10-09T00:35:01.289Z,84.2
2022-10-09T00:40:01.226Z,85.3
2022-10-09T00:45:01.265Z,88.3
2022-10-09T00:50:01.116Z,87.9
2022-10-09T01:10:01.610Z,85.6
2022-10-09T01:15:01.665Z,85.6
2022-10-09T01:20:01.264Z,85.7
2022-10-09T01:40:00.829Z,84.8
2022-10-09T01:45:00.862Z,83.5
2022-10-09T01:50:05.757Z,84.1
2022-10-09T01:55:00.793Z,84.7
2022-10-09T02:20:01.324Z,94.0
2022-10-09T02:25:01.354Z,93.4
2022-10-09T02:30:01.212Z,93.5
2022-10-09T02:35:01.344Z,93.2
2022-10-09T02:40:01.257Z,93.9
2022-10-09T02:45:01.712Z,93.8
2022-10-09T02:50:01.229Z,93.7
2022-10-09T02:55:01.264Z,92.5
2022-10-09T03:00:01.247Z,90.6
2022-10-09T03:05:01.359Z,88.9
2022-10-09T03:10:01.231Z,87.3
2022-10-09T03:15:01.291Z,86.4
2022-10-09T03:20:01.221Z,86.6
2022-10-09T03:25:01.273Z,88.0
2022-10-09T03:30:01.412Z,87.8
2022-10-09T03:35:01.338Z,88.0
2022-10-09T03:40:01.235Z,89.0
2022-10-09T03:45:01.328Z,89.6
2022-10-09T03:50:01.524Z,89.7
2022-10-09T03:55:01.293Z,90.2
2022-10-09T04:00:01.226Z,91.1
2022-10-09T04:05:01.258Z,91.2
2022-10-09T04:10:06.196Z,91.9
2022-10-09T04:15:06.283Z,90.8
2022-10-09T04:20:01.162Z,89.6
2022-10-09T04:25:01.213Z,88.8
2022-10-09T04:30:01.141Z,87.3
2022-10-09T04:35:01.294Z,86.6
2022-10-09T04:40:01.133Z,86.9
2022-10-09T04:45:01.262Z,88.1
2022-10-09T04:50:01.135Z,88.5
2022-10-09T04:55:01.276Z,90.0
2022-10-09T05:00:01.132Z,90.0
2022-10-09T05:05:01.183Z,91.1
2022-10-09T05:10:01.110Z,91.4
2022-10-09T05:20:01.562Z,92.0
2022-10-09T05:25:01.177Z,91.9
2022-10-09T05:35:01.172Z,93.0
2022-10-09T05:45:01.204Z,93.5
2022-10-09T05:50:01.113Z,93.6
2022-10-09T05:55:01.248Z,93.5
2022-10-09T06:00:01.124Z,92.7
2022-10-09T06:05:01.207Z,92.2
2022-10-09T06:10:01.115Z,91.0
2022-10-09T06:15:01.180Z,90.6
2022-10-09T06:20:01.112Z,89.1
2022-10-09T06:30:01.329Z,87.2
2022-10-09T06:35:01.249Z,85.0
2022-10-09T06:40:01.112Z,84.4
2022-10-09T06:45:01.178Z,83.9
2022-10-09T06:50:01.137Z,89.3
2022-10-09T06:55:01.113Z,90.4
2022-10-09T07:00:01.116Z,90.6
2022-10-09T07:05:01.737Z,89.3
2022-10-09T07:10:01.175Z,88.3
2022-10-09T07:15:01.187Z,81.7
2022-10-09T07:20:01.117Z,80.0
2022-10-09T07:25:01.382Z,80.3
2022-10-09T07:30:01.176Z,80.4
2022-10-09T07:35:01.263Z,84.7
2022-10-09T07:40:01.158Z,83.9
2022-10-09T07:45:01.210Z,84.2
2022-10-09T07:50:01.182Z,83.6
2022-10-09T07:55:01.241Z,84.0
2022-10-09T08:00:01.450Z,80.1
2022-10-09T08:10:02.391Z,81.7
2022-10-09T08:15:01.283Z,83.1
2022-10-09T08:20:01.151Z,84.8
2022-10-09T08:25:06.303Z,81.8
2022-10-09T08:30:01.462Z,77.9
2022-10-09T08:35:06.200Z,74.1
2022-10-09T08:40:01.144Z,70.3
2022-10-09T08:45:01.297Z,70.7
2022-10-09T08:50:01.161Z,70.8
2022-10-09T09:00:01.208Z,71.5
2022-10-09T09:05:01.242Z,72.8
2022-10-09T09:15:01.269Z,69.0
2022-10-09T09:30:00.775Z,99.2
2022-10-09T09:35:00.802Z,83.2
2022-10-09T10:10:01.266Z,67.8
2022-10-09T10:15:01.287Z,72.1
2022-10-09T10:20:01.155Z,70.3
2022-10-09T10:25:01.294Z,69.1
2022-10-09T10:30:01.386Z,68.9
2022-10-09T10:35:01.208Z,69.5
2022-10-09T10:40:02.253Z,69.0
2022-10-09T11:00:00.947Z,49.4
2022-10-09T11:05:00.843Z,50.3
2022-10-09T11:20:01.303Z,55.0
2022-10-09T11:25:01.175Z,60.3
2022-10-09T11:30:01.120Z,62.2
2022-10-09T11:35:01.179Z,65.4
2022-10-09T11:40:01.157Z,66.6
2022-10-09T11:45:01.240Z,70.7
2022-10-09T11:50:01.112Z,72.2
2022-10-09T12:10:01.753Z,70.4
2022-10-09T12:15:01.714Z,60.1
2022-10-09T12:30:01.162Z,69.2
2022-10-09T12:35:01.118Z,75.4
2022-10-09T12:40:01.162Z,76.4
2022-10-09T12:45:01.104Z,76.1
2022-10-09T12:50:01.133Z,76.0
2022-10-09T12:55:01.091Z,77.8
2022-10-09T13:00:00.977Z,78.2
2022-10-09T13:05:01.143Z,78.4
2022-10-09T13:10:01.013Z,79.2
2022-10-09T13:15:01.112Z,79.8
2022-10-09T13:20:00.979Z,80.6
2022-10-09T13:40:00.895Z,72.2
2022-10-09T13:45:01.956Z,76.9
2022-10-09T13:50:06.794Z,78.6
2022-10-09T13:55:00.860Z,78.4
2022-10-09T14:00:00.824Z,79.3
2022-10-09T14:05:00.851Z,81.1
2022-10-09T14:10:00.859Z,79.8
2022-10-09T14:15:00.927Z,79.3
2022-10-09T14:20:00.771Z,79.9
2022-10-09T14:25:00.911Z,78.5
2022-10-09T14:30:01.040Z,76.9
2022-10-09T14:35:00.865Z,75.8
2022-10-09T14:40:00.843Z,74.2
2022-10-09T14:45:00.806Z,72.4
2022-10-09T14:50:00.730Z,74.4
2022-10-09T14:55:00.847Z,74.6
2022-10-09T15:00:05.862Z,75.9
2022-10-09T15:05:00.863Z,76.7
2022-10-09T15:10:00.840Z,77.0
2022-10-09T15:15:00.863Z,74.4
2022-10-09T15:20:00.823Z,74.6
2022-10-09T15:25:00.815Z,74.8
2022-10-09T15:30:00.741Z,73.9
2022-10-09T15:35:00.880Z,86.0
2022-10-09T15:40:00.787Z,86.4
2022-10-09T15:45:00.873Z,86.9
2022-10-09T15:50:00.865Z,86.8
2022-10-09T15:55:01.661Z,87.4
2022-10-09T16:00:00.827Z,76.4
2022-10-09T16:05:00.811Z,76.7
2022-10-09T16:10:00.749Z,76.6
2022-10-09T16:15:00.867Z,75.2
2022-10-09T16:20:01.216Z,74.8
2022-10-09T16:25:01.143Z,74.0
2022-10-09T16:30:00.903Z,73.5
2022-10-09T16:40:00.923Z,75.0
2022-10-09T16:45:01.858Z,76.8
2022-10-09T16:50:00.781Z,77.7
2022-10-09T16:55:00.969Z,78.7
2022-10-09T17:00:00.822Z,79.2
2022-10-09T17:05:01.770Z,79.4
2022-10-09T17:10:00.789Z,78.5
2022-10-09T17:15:00.834Z,77.9
2022-10-09T17:20:00.766Z,77.4
2022-10-09T17:25:00.819Z,76.4
2022-10-09T17:30:01.191Z,75.8
2022-10-09T17:35:00.871Z,74.4
2022-10-09T17:40:00.810Z,72.7
2022-10-09T17:45:00.809Z,70.3
2022-10-09T17:50:00.784Z,69.3
2022-10-09T17:55:00.805Z,67.1
2022-10-09T18:00:00.764Z,66.0
2022-10-09T18:05:00.878Z,65.7
2022-10-09T18:10:00.850Z,65.2
2022-10-09T18:15:00.907Z,68.7
2022-10-09T18:20:00.798Z,69.2
2022-10-09T18:25:00.844Z,69.7
2022-10-09T18:30:00.827Z,70.2
2022-10-09T18:35:00.924Z,72.8
2022-10-09T18:40:00.776Z,68.8
2022-10-09T18:45:00.890Z,68.8
2022-10-09T18:55:00.940Z,68.7
2022-10-09T19:00:00.789Z,66.7
2022-10-09T19:05:00.878Z,67.2
2022-10-09T19:10:00.785Z,68.9
2022-10-09T19:15:00.910Z,70.3
2022-10-09T19:20:00.775Z,71.4
2022-10-09T19:25:00.884Z,71.9
2022-10-09T19:30:01.784Z,71.1
2022-10-09T19:35:01.450Z,69.8
2022-10-09T19:40:00.774Z,68.1
2022-10-09T19:45:00.884Z,66.2
2022-10-09T19:55:00.884Z,66.9
2022-10-09T20:00:00.777Z,67.1
2022-10-09T20:05:00.817Z,68.4
2022-10-09T20:10:00.880Z,70.9
2022-10-09T20:15:00.815Z,70.4
2022-10-09T20:20:00.803Z,70.0
2022-10-09T20:25:05.935Z,69.6
2022-10-09T20:30:00.761Z,68.3
2022-10-09T20:35:01.848Z,67.2
2022-10-09T20:40:00.841Z,66.7
2022-10-09T20:45:00.819Z,66.5
2022-10-09T20:50:00.758Z,66.3
2022-10-09T20:55:00.881Z,73.1
2022-10-09T21:00:00.780Z,72.4
2022-10-09T21:05:05.893Z,74.0
2022-10-09T21:10:00.810Z,76.1
2022-10-09T21:15:00.824Z,77.6
2022-10-09T21:20:00.784Z,71.3
2022-10-09T21:25:00.921Z,70.2
2022-10-09T21:30:00.759Z,69.1
2022-10-09T21:35:00.900Z,67.0
2022-10-09T21:40:00.813Z,65.3
2022-10-09T21:45:00.943Z,65.1
2022-10-09T21:50:00.792Z,66.1
2022-10-09T21:55:00.988Z,66.9
2022-10-09T22:00:00.812Z,68.7
2022-10-09T22:05:00.973Z,70.0
2022-10-09T22:10:00.784Z,71.5
2022-10-09T22:15:01.436Z,72.5
2022-10-09T22:20:00.819Z,73.5
2022-10-09T22:25:00.821Z,71.9
2022-10-09T22:30:00.834Z,70.3
2022-10-09T22:40:00.877Z,68.8
2022-10-09T22:45:00.830Z,67.5
2022-10-09T22:50:00.757Z,72.5
2022-10-09T22:55:01.852Z,73.9
2022-10-09T23:00:00.792Z,74.1
2022-10-09T23:05:00.899Z,75.5
2022-10-09T23:10:00.757Z,76.3
2022-10-09T23:15:00.886Z,71.6
2022-10-09T23:20:00.806Z,71.3
2022-10-09T23:25:00.899Z,71.8
2022-10-09T23:30:00.763Z,70.5
2022-10-09T23:35:00.842Z,82.2
2022-10-09T23:40:00.796Z,83.8
2022-10-09T23:45:00.911Z,85.1
2022-10-09T23:50:00.777Z,85.3
2022-10-09T23:55:00.898Z,87.5
